createdAt,value
2022-10-30T00:01:05.098Z,96877.00
2022-10-30T00:05:08.932Z,96868.00
2022-10-30T00:09:12.053Z,96880.00
2022-10-30T00:13:16.464Z,96875.00
2022-10-30T00:17:50.053Z,96866.00
2022-10-30T00:21:53.095Z,96870.00
2022-10-30T00:25:56.147Z,96866.00
2022-10-30T00:30:00.592Z,96869.00
2022-10-30T00:34:34.286Z,96866.00
2022-10-30T00:38:37.343Z,96871.00
2022-10-30T00:42:40.377Z,96864.00
2022-10-30T00:46:44.808Z,96859.00
2022-10-30T00:51:19.630Z,96856.00
2022-10-30T00:55:25.984Z,96858.00
2022-10-30T00:59:33.545Z,96854.00
2022-10-30T01:04:08.693Z,96844.00
2022-10-30T01:08:11.835Z,96845.00
2022-10-30T01:12:15.187Z,96838.00
2022-10-30T01:16:37.210Z,96836.00
2022-10-30T01:21:13.136Z,96827.00
2022-10-30T01:25:30.726Z,96823.00
2022-10-30T01:29:47.226Z,96822.00
2022-10-30T01:34:01.702Z,96826.00
2022-10-30T01:38:11.406Z,96820.00
2022-10-30T01:42:47.167Z,96821.00
2022-10-30T01:47:05.138Z,96817.00
2022-10-30T01:51:17.204Z,96817.00
2022-10-30T01:55:32.379Z,96817.00
2022-10-30T01:59:39.242Z,96821.00
2022-10-30T02:03:42.448Z,96815.00
2022-10-30T02:08:18.879Z,96809.00
2022-10-30T02:12:24.396Z,96816.00
2022-10-30T02:16:27.550Z,96822.00
2022-10-30T02:21:06.675Z,96818.00
2022-10-30T02:25:10.881Z,96811.00
2022-10-30T02:29:14.241Z,96815.00
2022-10-30T02:37:27.283Z,96808.00
2022-10-30T02:41:30.311Z,96811.00
2022-10-30T02:45:33.399Z,96808.00
2022-10-30T02:49:36.431Z,96806.00
2022-10-30T02:54:13.057Z,96810.00
2022-10-30T02:58:18.049Z,96806.00
2022-10-30T03:02:21.190Z,96809.00
2022-10-30T03:06:57.872Z,96804.00
2022-10-30T03:11:03.433Z,96803.00
2022-10-30T03:15:09.267Z,96797.00
2022-10-30T03:19:12.301Z,96793.00
2022-10-30T03:23:15.334Z,96789.00
2022-10-30T03:27:18.371Z,96792.00
2022-10-30T03:31:56.849Z,96789.00
2022-10-30T03:36:00.625Z,96797.00
2022-10-30T03:40:03.662Z,96799.00
2022-10-30T03:44:40.437Z,96795.00
2022-10-30T03:49:18.990Z,96800.00
2022-10-30T03:53:24.024Z,96793.00
2022-10-30T03:57:30.084Z,96798.00
2022-10-30T04:02:07.099Z,96800.00
2022-10-30T04:06:45.362Z,96794.00
2022-10-30T04:10:48.961Z,96790.00
2022-10-30T04:15:22.979Z,96799.00
2022-10-30T04:19:59.508Z,96800.00
2022-10-30T04:24:03.981Z,96798.00
2022-10-30T04:28:40.692Z,96794.00
2022-10-30T04:32:47.897Z,96788.00
2022-10-30T04:37:19.045Z,96782.00
2022-10-30T04:41:23.482Z,96780.00
2022-10-30T04:45:57.393Z,96782.00
2022-10-30T04:50:00.604Z,96789.00
2022-10-30T04:54:36.873Z,96784.00
2022-10-30T04:58:41.721Z,96774.00
2022-10-30T05:07:20.690Z,96769.00
2022-10-30T05:11:24.117Z,96767.00
2022-10-30T05:16:02.617Z,96768.00
2022-10-30T05:20:36.242Z,96769.00
2022-10-30T05:25:13.260Z,96761.00
2022-10-30T05:29:50.429Z,96753.00
2022-10-30T05:34:26.771Z,96763.00
2022-10-30T05:38:31.204Z,96755.00
2022-10-30T05:43:08.994Z,96757.00
2022-10-30T05:47:12.782Z,96760.00
2022-10-30T05:51:49.570Z,96762.00
2022-10-30T05:56:27.679Z,96760.00
2022-10-30T06:00:32.299Z,96764.00
2022-10-30T06:05:06.292Z,96774.00
2022-10-30T06:09:43.136Z,96768.00
2022-10-30T06:14:21.221Z,96769.00
2022-10-30T06:18:24.371Z,96766.00
2022-10-30T06:23:02.262Z,96772.00
2022-10-30T06:27:39.489Z,96777.00
2022-10-30T06:32:15.823Z,96781.00
2022-10-30T06:36:20.508Z,96788.00
2022-10-30T06:40:54.305Z,96790.00
2022-10-30T06:44:57.345Z,96778.00
2022-10-30T06:49:34.130Z,96787.00
2022-10-30T06:54:12.562Z,96791.00
2022-10-30T06:58:46.366Z,96781.00
2022-10-30T07:02:57.433Z,96793.00
2022-10-30T07:07:25.448Z,96794.00
2022-10-30T07:12:06.998Z,96803.00
2022-10-30T07:16:38.088Z,96793.00
2022-10-30T07:21:14.949Z,96799.00
2022-10-30T07:25:51.926Z,96806.00
2022-10-30T07:29:56.373Z,96811.00
2022-10-30T07:34:29.833Z,96808.00
2022-10-30T07:38:32.997Z,96822.00
2022-10-30T07:42:35.987Z,96810.00
2022-10-30T07:47:14.166Z,96809.00
2022-10-30T07:51:51.179Z,96815.00
2022-10-30T07:55:54.257Z,96820.00
2022-10-30T08:00:31.124Z,96814.00
2022-10-30T08:04:35.631Z,96813.00
2022-10-30T08:09:09.758Z,96823.00
2022-10-30T08:13:14.349Z,96814.00
2022-10-30T08:17:17.418Z,96814.00
2022-10-30T08:21:22.135Z,96819.00
2022-10-30T08:25:27.374Z,96810.00
2022-10-30T08:29:30.465Z,96811.00
2022-10-30T08:33:33.685Z,96812.00
2022-10-30T08:38:11.993Z,96813.00
2022-10-30T08:42:15.149Z,96813.00
2022-10-30T08:46:51.542Z,96810.00
2022-10-30T08:51:28.465Z,96818.00
2022-10-30T08:55:33.862Z,96814.00
2022-10-30T09:00:10.817Z,96811.00
2022-10-30T09:04:13.875Z,96810.00
2022-10-30T09:08:50.673Z,96808.00
2022-10-30T09:12:59.408Z,96814.00
2022-10-30T09:17:04.441Z,96809.00
2022-10-30T09:21:07.817Z,96806.00
2022-10-30T09:25:10.953Z,96812.00
2022-10-30T09:29:49.254Z,96814.00
2022-10-30T09:34:23.373Z,96818.00
2022-10-30T09:39:00.697Z,96826.00
2022-10-30T09:43:41.378Z,96818.00
2022-10-30T09:48:29.609Z,96814.00
2022-10-30T09:53:03.574Z,96811.00
2022-10-30T09:57:33.709Z,96812.00
2022-10-30T10:02:10.736Z,96808.00
2022-10-30T10:06:45.464Z,96808.00
2022-10-30T10:11:20.156Z,96803.00
2022-10-30T10:15:58.039Z,96807.00
2022-10-30T10:20:02.962Z,96806.00
2022-10-30T10:24:40.037Z,96802.00
2022-10-30T10:29:13.869Z,96809.00
2022-10-30T10:34:12.044Z,96804.00
2022-10-30T10:38:56.236Z,96813.00
2022-10-30T10:43:12.540Z,96814.00
2022-10-30T10:47:35.553Z,96807.00
2022-10-30T10:51:55.340Z,96805.00
2022-10-30T10:56:00.758Z,96796.00
2022-10-30T11:00:39.147Z,96791.00
2022-10-30T11:04:44.736Z,96791.00
2022-10-30T11:08:49.048Z,96782.00
2022-10-30T11:13:24.802Z,96780.00
2022-10-30T11:17:38.179Z,96782.00
2022-10-30T11:21:46.140Z,96782.00
2022-10-30T11:25:49.213Z,96778.00
2022-10-30T11:29:55.954Z,96780.00
2022-10-30T11:34:35.158Z,96780.00
2022-10-30T11:38:38.297Z,96780.00
2022-10-30T11:42:44.189Z,96777.00
2022-10-30T11:46:47.621Z,96775.00
2022-10-30T11:51:28.047Z,96778.00
2022-10-30T11:55:37.599Z,96774.00
2022-10-30T11:59:45.918Z,96769.00
2022-10-30T12:03:49.161Z,96766.00
2022-10-30T12:07:52.615Z,96762.00
2022-10-30T12:12:33.313Z,96765.00
2022-10-30T12:16:37.733Z,96759.00
2022-10-30T12:20:40.850Z,96755.00
2022-10-30T12:25:21.866Z,96756.00
2022-10-30T12:30:02.728Z,96758.00
2022-10-30T12:34:12.994Z,96757.00
2022-10-30T12:38:37.764Z,96752.00
2022-10-30T12:42:46.834Z,96747.00
2022-10-30T12:46:57.331Z,96749.00
2022-10-30T12:51:15.976Z,96744.00
2022-10-30T12:55:26.763Z,96747.00
2022-10-30T12:59:36.867Z,96733.00
2022-10-30T13:03:50.192Z,96743.00
2022-10-30T13:08:02.084Z,96741.00
2022-10-30T13:12:10.864Z,96732.00
2022-10-30T13:16:17.985Z,96729.00
2022-10-30T13:20:23.807Z,96729.00
2022-10-30T13:25:03.942Z,96731.00
2022-10-30T13:29:38.843Z,96721.00
2022-10-30T13:33:51.333Z,96720.00
2022-10-30T13:38:26.535Z,96719.00
2022-10-30T13:42:58.418Z,96711.00
2022-10-30T13:47:13.892Z,96716.00
2022-10-30T13:51:38.629Z,96714.00
2022-10-30T13:55:44.752Z,96719.00
2022-10-30T14:00:15.793Z,96713.00
2022-10-30T14:04:25.897Z,96717.00
2022-10-30T14:08:37.400Z,96720.00
2022-10-30T14:13:15.297Z,96716.00
2022-10-30T14:17:40.418Z,96715.00
2022-10-30T14:22:16.717Z,96715.00
2022-10-30T14:26:54.601Z,96712.00
2022-10-30T14:31:37.150Z,96706.00
2022-10-30T14:36:14.960Z,96716.00
2022-10-30T14:40:39.166Z,96713.00
2022-10-30T14:45:10.865Z,96719.00
2022-10-30T14:49:47.910Z,96720.00
2022-10-30T14:54:18.805Z,96722.00
2022-10-30T14:58:26.077Z,96725.00
2022-10-30T15:02:58.386Z,96726.00
2022-10-30T15:07:09.198Z,96718.00
2022-10-30T15:11:50.958Z,96730.00
2022-10-30T15:16:17.629Z,96723.00
2022-10-30T15:20:51.915Z,96718.00
2022-10-30T15:25:24.924Z,96730.00
2022-10-30T15:30:00.937Z,96723.00
2022-10-30T15:34:04.351Z,96727.00
2022-10-30T15:38:41.238Z,96733.00
2022-10-30T15:43:17.955Z,96734.00
2022-10-30T15:47:59.870Z,96735.00
2022-10-30T15:52:05.754Z,96734.00
2022-10-30T15:57:08.188Z,96728.00
2022-10-30T16:01:26.013Z,96740.00
2022-10-30T16:05:31.479Z,96733.00
2022-10-30T16:09:34.643Z,96735.00
2022-10-30T16:13:37.788Z,96733.00
2022-10-30T16:18:20.537Z,96736.00
2022-10-30T16:22:29.221Z,96734.00
2022-10-30T16:27:03.558Z,96734.00
2022-10-30T16:31:10.075Z,96727.00
2022-10-30T16:35:13.275Z,96727.00
2022-10-30T16:39:52.672Z,96725.00
2022-10-30T16:44:27.797Z,96727.00
2022-10-30T16:49:02.607Z,96739.00
2022-10-30T16:53:07.236Z,96744.00
2022-10-30T16:57:44.652Z,96748.00
2022-10-30T17:01:55.154Z,96743.00
2022-10-30T17:06:01.236Z,96743.00
2022-10-30T17:10:36.030Z,96739.00
2022-10-30T17:14:50.003Z,96747.00
2022-10-30T17:19:35.373Z,96756.00
2022-10-30T17:23:45.102Z,96754.00
2022-10-30T17:27:50.386Z,96766.00
2022-10-30T17:32:29.794Z,96768.00
2022-10-30T17:36:32.940Z,96773.00
2022-10-30T17:41:12.528Z,96780.00
2022-10-30T17:45:46.952Z,96777.00
2022-10-30T17:49:51.386Z,96777.00
2022-10-30T17:54:25.093Z,96777.00
2022-10-30T17:58:28.419Z,96774.00
2022-10-30T18:02:31.498Z,96779.00
2022-10-30T18:06:35.981Z,96768.00
2022-10-30T18:11:11.310Z,96776.00
2022-10-30T18:15:30.089Z,96772.00
2022-10-30T18:20:00.899Z,96766.00
2022-10-30T18:24:39.490Z,96765.00
2022-10-30T18:29:13.223Z,96774.00
2022-10-30T18:33:50.019Z,96786.00
2022-10-30T18:38:26.869Z,96782.00
2022-10-30T18:43:05.350Z,96790.00
2022-10-30T18:47:40.297Z,96789.00
2022-10-30T18:52:13.974Z,96790.00
2022-10-30T18:56:50.772Z,96777.00
2022-10-30T19:01:27.656Z,96782.00
2022-10-30T19:05:35.325Z,96779.00
2022-10-30T19:10:06.811Z,96771.00
2022-10-30T19:14:40.576Z,96773.00
2022-10-30T19:19:18.057Z,96766.00
2022-10-30T19:23:56.949Z,96770.00
2022-10-30T19:28:32.445Z,96771.00
2022-10-30T19:33:06.116Z,96767.00
2022-10-30T19:37:10.398Z,96769.00
2022-10-30T19:41:14.862Z,96768.00
2022-10-30T19:45:51.352Z,96760.00
2022-10-30T19:50:27.098Z,96768.00
2022-10-30T19:54:31.348Z,96768.00
2022-10-30T19:59:06.947Z,96773.00
2022-10-30T20:03:12.036Z,96772.00
2022-10-30T20:07:15.173Z,96776.00
2022-10-30T20:11:52.063Z,96772.00
2022-10-30T20:15:57.949Z,96772.00
2022-10-30T20:20:01.007Z,96782.00
2022-10-30T20:24:05.049Z,96785.00
2022-10-30T20:28:40.222Z,96780.00
2022-10-30T20:33:15.341Z,96784.00
2022-10-30T20:37:56.086Z,96787.00
2022-10-30T20:41:59.231Z,96792.00
2022-10-30T20:46:35.962Z,96793.00
2022-10-30T20:51:14.843Z,96802.00
2022-10-30T20:55:18.175Z,96791.00
2022-10-30T20:59:21.680Z,96778.00
2022-10-30T21:04:01.566Z,96782.00
2022-10-30T21:08:07.151Z,96782.00
2022-10-30T21:12:40.785Z,96786.00
2022-10-30T21:16:44.129Z,96786.00
2022-10-30T21:20:47.321Z,96786.00
2022-10-30T21:25:25.651Z,96784.00
2022-10-30T21:29:31.295Z,96788.00
2022-10-30T21:34:05.202Z,96788.00
2022-10-30T21:38:08.239Z,96782.00
2022-10-30T21:42:48.377Z,96787.00
2022-10-30T21:46:52.249Z,96787.00
2022-10-30T21:50:55.591Z,96783.00
2022-10-30T21:55:32.354Z,96788.00
2022-10-30T21:59:36.801Z,96782.00
2022-10-30T22:03:39.865Z,96789.00
2022-10-30T22:08:18.300Z,96783.00
2022-10-30T22:12:21.340Z,96773.00
2022-10-30T22:16:59.565Z,96772.00
2022-10-30T22:21:03.952Z,96771.00
2022-10-30T22:25:41.788Z,96766.00
2022-10-30T22:29:44.810Z,96770.00
2022-10-30T22:33:49.438Z,96768.00
2022-10-30T22:38:23.505Z,96764.00
2022-10-30T22:42:26.557Z,96761.00
2022-10-30T22:47:03.741Z,96763.00
2022-10-30T22:51:13.532Z,96757.00
2022-10-30T22:55:19.403Z,96771.00
2022-10-30T22:59:22.878Z,96765.00
2022-10-30T23:04:00.465Z,96769.00
2022-10-30T23:08:05.268Z,96771.00
2022-10-30T23:12:08.452Z,96766.00
2022-10-30T23:16:45.441Z,96765.00
2022-10-30T23:20:49.518Z,96765.00
2022-10-30T23:24:53.934Z,96761.00
2022-10-30T23:29:30.800Z,96761.00
2022-10-30T23:34:08.544Z,96765.00
2022-10-30T23:38:11.599Z,96761.00
2022-10-30T23:42:16.465Z,96767.00
2022-10-30T23:46:19.481Z,96771.00
2022-10-30T23:50:22.598Z,96767.00
2022-10-30T23:54:25.978Z,96762.00
2022-10-30T23:58:59.879Z,96767.00
